createdAt,value
2017-08-24T00:00:26.542Z,96.83
2017-08-24T00:01:26.498Z,96.88
2017-08-24T00:02:26.504Z,97.07
2017-08-24T00:03:26.474Z,97.18
2017-08-24T00:04:26.439Z,97.18
2017-08-24T00:05:26.470Z,97.42
2017-08-24T00:06:26.503Z,97.72
2017-08-24T00:07:26.472Z,98.10
2017-08-24T00:08:26.473Z,98.21
2017-08-24T00:09:26.471Z,98.21
2017-08-24T00:10:26.471Z,98.50
2017-08-24T00:11:26.507Z,98.40
2017-08-24T00:12:26.523Z,98.26
2017-08-24T00:13:26.550Z,98.04
2017-08-24T00:15:26.509Z,98.42
2017-08-24T00:16:26.494Z,98.72
2017-08-24T00:17:26.513Z,98.55
2017-08-24T00:18:26.533Z,98.61
2017-08-24T00:19:26.552Z,98.66
2017-08-24T00:20:26.554Z,98.40
2017-08-24T00:21:26.453Z,98.64
2017-08-24T00:22:26.480Z,98.61
2017-08-24T00:23:26.456Z,98.53
2017-08-24T00:24:26.454Z,98.75
2017-08-24T00:25:26.483Z,98.91
2017-08-24T00:26:26.516Z,98.96
2017-08-24T00:27:26.458Z,98.99
2017-08-24T00:28:26.522Z,98.94
2017-08-24T00:29:26.517Z,99.02
2017-08-24T00:30:26.520Z,99.23
2017-08-24T00:31:26.485Z,99.37
2017-08-24T00:32:26.466Z,99.53
2017-08-24T00:33:26.475Z,99.48
2017-08-24T00:34:26.454Z,99.81
2017-08-24T00:35:26.451Z,99.89
2017-08-24T00:36:26.470Z,99.92
2017-08-24T00:37:26.462Z,99.83
2017-08-24T00:38:26.544Z,99.99
2017-08-24T00:39:26.491Z,99.99
2017-08-24T00:40:26.422Z,99.99
2017-08-24T00:41:26.468Z,99.89
2017-08-24T00:42:26.468Z,99.86
2017-08-24T00:43:26.529Z,99.78
2017-08-24T00:44:26.525Z,99.75
2017-08-24T00:45:26.529Z,99.99
2017-08-24T00:46:26.469Z,99.72
2017-08-24T00:47:26.534Z,99.89
2017-08-24T00:48:26.531Z,99.86
2017-08-24T00:49:26.470Z,99.83
2017-08-24T00:50:26.528Z,99.78
2017-08-24T00:51:26.574Z,99.45
2017-08-24T00:52:26.481Z,99.23
2017-08-24T00:53:26.566Z,99.45
2017-08-24T00:54:26.478Z,99.37
2017-08-24T00:55:26.544Z,99.29
2017-08-24T00:56:26.554Z,99.21
2017-08-24T00:57:26.505Z,99.21
2017-08-24T00:58:26.553Z,99.04
2017-08-24T00:59:26.485Z,98.91
2017-08-24T01:00:26.481Z,98.96
2017-08-24T01:01:26.536Z,98.45
2017-08-24T01:02:26.503Z,98.23
2017-08-24T01:03:26.478Z,98.26
2017-08-24T01:04:26.479Z,97.93
2017-08-24T01:05:26.540Z,97.99
2017-08-24T01:06:26.542Z,97.88
2017-08-24T01:07:26.541Z,97.26
2017-08-24T01:08:26.544Z,97.02
2017-08-24T01:09:26.486Z,96.50
2017-08-24T01:10:26.482Z,96.04
2017-08-24T01:11:26.519Z,95.85
2017-08-24T01:12:26.549Z,95.61
2017-08-24T01:13:26.494Z,95.61
2017-08-24T01:14:26.491Z,95.37
2017-08-24T01:15:26.485Z,95.47
2017-08-24T01:16:26.489Z,95.34
2017-08-24T01:17:26.517Z,95.15
2017-08-24T01:18:26.548Z,95.28
2017-08-24T01:19:26.520Z,95.01
2017-08-24T01:20:26.489Z,95.15
2017-08-24T01:21:26.553Z,95.07
2017-08-24T01:22:26.530Z,95.12
2017-08-24T01:23:26.593Z,95.18
2017-08-24T01:24:26.591Z,95.04
2017-08-24T01:25:26.529Z,95.12
2017-08-24T01:26:26.534Z,95.31
2017-08-24T01:27:26.536Z,95.37
2017-08-24T01:28:26.590Z,95.39
2017-08-24T01:29:26.565Z,95.18
2017-08-24T01:30:26.595Z,95.20
2017-08-24T01:31:26.529Z,95.31
2017-08-24T01:32:26.519Z,95.42
2017-08-24T01:33:26.523Z,95.53
2017-08-24T01:34:26.515Z,95.75
2017-08-24T01:35:26.523Z,95.64
2017-08-24T01:36:26.497Z,95.66
2017-08-24T01:37:26.526Z,95.88
2017-08-24T01:38:26.559Z,96.26
2017-08-24T01:39:26.563Z,96.39
2017-08-24T01:40:26.528Z,96.23
2017-08-24T01:41:26.576Z,96.26
2017-08-24T01:42:26.570Z,96.28
2017-08-24T01:43:26.577Z,95.61
2017-08-24T01:44:26.583Z,95.56
2017-08-24T01:45:26.511Z,95.45
2017-08-24T01:46:26.577Z,95.47
2017-08-24T01:47:26.543Z,95.58
2017-08-24T01:48:26.534Z,95.45
2017-08-24T01:49:26.529Z,95.56
2017-08-24T01:50:26.549Z,95.61
2017-08-24T01:51:26.580Z,95.42
2017-08-24T01:52:26.618Z,95.50
2017-08-24T01:53:26.599Z,95.45
2017-08-24T01:54:26.602Z,95.34
2017-08-24T01:55:26.567Z,95.39
2017-08-24T01:56:26.552Z,95.28
2017-08-24T01:57:26.547Z,95.01
2017-08-24T01:58:26.606Z,94.88
2017-08-24T01:59:26.515Z,94.69
2017-08-24T02:00:26.606Z,94.61
2017-08-24T02:01:26.611Z,94.40
2017-08-24T02:02:26.524Z,94.31
2017-08-24T02:03:26.525Z,94.34
2017-08-24T02:04:26.591Z,94.12
2017-08-24T02:05:26.544Z,94.02
2017-08-24T02:06:26.583Z,94.10
2017-08-24T02:07:26.551Z,93.70
2017-08-24T02:08:26.612Z,93.85
2017-08-24T02:09:26.620Z,93.64
2017-08-24T02:10:26.618Z,93.29
2017-08-24T02:11:26.528Z,93.37
2017-08-24T02:12:26.597Z,93.29
2017-08-24T02:13:26.565Z,93.32
2017-08-24T02:14:26.554Z,92.91
2017-08-24T02:15:26.548Z,92.91
2017-08-24T02:16:26.615Z,93.13
2017-08-24T02:17:26.597Z,92.89
2017-08-24T02:18:26.566Z,93.02
2017-08-24T02:19:26.526Z,93.18
2017-08-24T02:20:26.529Z,92.91
2017-08-24T02:21:26.570Z,93.02
2017-08-24T02:22:26.625Z,92.81
2017-08-24T02:23:26.627Z,92.95
2017-08-24T02:24:26.604Z,92.81
2017-08-24T02:25:26.592Z,93.05
2017-08-24T02:26:26.630Z,92.84
2017-08-24T02:27:26.603Z,92.89
2017-08-24T02:28:26.591Z,92.95
2017-08-24T02:29:26.608Z,93.05
2017-08-24T02:30:26.626Z,93.21
2017-08-24T02:31:26.528Z,93.35
2017-08-24T02:32:26.592Z,93.32
2017-08-24T02:33:26.594Z,93.64
2017-08-24T02:34:26.534Z,93.40
2017-08-24T02:35:26.535Z,93.37
2017-08-24T02:36:26.559Z,93.37
2017-08-24T02:37:26.533Z,93.37
2017-08-24T02:38:26.562Z,93.67
2017-08-24T02:39:26.593Z,93.75
2017-08-24T02:40:26.598Z,93.96
2017-08-24T02:41:26.600Z,93.78
2017-08-24T02:42:26.596Z,94.31
2017-08-24T02:43:26.606Z,94.15
2017-08-24T02:44:26.598Z,94.45
2017-08-24T02:45:26.569Z,94.64
2017-08-24T02:46:26.552Z,94.80
2017-08-24T02:47:26.613Z,94.88
2017-08-24T02:48:26.556Z,94.91
2017-08-24T02:49:26.545Z,94.83
2017-08-24T02:50:26.546Z,95.34
2017-08-24T02:51:26.583Z,94.91
2017-08-24T02:52:26.602Z,94.99
2017-08-24T02:53:26.610Z,95.28
2017-08-24T02:54:26.551Z,95.12
2017-08-24T02:55:26.641Z,95.04
2017-08-24T02:56:26.553Z,95.10
2017-08-24T02:57:26.553Z,95.01
2017-08-24T02:58:26.646Z,95.01
2017-08-24T02:59:26.551Z,95.12
2017-08-24T03:00:26.580Z,95.01
2017-08-24T03:01:26.587Z,95.12
2017-08-24T03:02:26.646Z,95.37
2017-08-24T03:03:26.555Z,95.58
2017-08-24T03:04:26.560Z,95.47
2017-08-24T03:05:26.619Z,95.64
2017-08-24T03:06:26.558Z,95.47
2017-08-24T03:07:26.621Z,95.34
2017-08-24T03:08:26.557Z,95.47
2017-08-24T03:09:26.650Z,95.72
2017-08-24T03:10:26.585Z,95.64
2017-08-24T03:11:26.554Z,95.61
2017-08-24T03:12:26.576Z,95.50
2017-08-24T03:13:26.616Z,95.37
2017-08-24T03:14:26.582Z,95.26
2017-08-24T03:15:26.582Z,95.37
2017-08-24T03:16:26.562Z,95.34
2017-08-24T03:17:26.561Z,95.61
2017-08-24T03:18:26.620Z,95.80
2017-08-24T03:19:26.558Z,95.77
2017-08-24T03:20:26.582Z,95.64
2017-08-24T03:21:26.663Z,95.50
2017-08-24T03:22:26.625Z,95.37
2017-08-24T03:23:26.634Z,95.28
2017-08-24T03:24:26.663Z,95.20
2017-08-24T03:25:26.623Z,95.15
2017-08-24T03:26:26.572Z,95.04
2017-08-24T03:27:26.572Z,95.07
2017-08-24T03:28:26.593Z,95.15
2017-08-24T03:29:26.572Z,95.20
2017-08-24T03:30:26.601Z,95.23
2017-08-24T03:31:26.640Z,95.75
2017-08-24T03:32:26.640Z,95.98
2017-08-24T03:33:26.662Z,95.94
2017-08-24T03:34:26.595Z,95.91
2017-08-24T03:35:26.600Z,95.91
2017-08-24T03:36:26.576Z,95.98
2017-08-24T03:37:26.612Z,95.96
2017-08-24T03:38:26.613Z,95.98
2017-08-24T03:39:26.607Z,96.17
2017-08-24T03:40:26.581Z,96.36
2017-08-24T03:41:26.633Z,96.36
2017-08-24T03:42:26.604Z,96.42
2017-08-24T03:43:26.602Z,96.39
2017-08-24T03:44:26.601Z,96.36
2017-08-24T03:45:26.634Z,96.55
2017-08-24T03:46:26.571Z,96.39
2017-08-24T03:47:26.608Z,96.26
2017-08-24T03:48:26.606Z,96.23
2017-08-24T03:49:26.603Z,96.17
2017-08-24T03:50:26.579Z,96.17
2017-08-24T03:51:26.607Z,96.23
2017-08-24T03:52:26.577Z,96.15
2017-08-24T03:53:26.581Z,96.20
2017-08-24T03:54:26.640Z,96.20
2017-08-24T03:55:26.605Z,96.04
2017-08-24T03:56:26.582Z,95.96
2017-08-24T03:57:26.607Z,96.36
2017-08-24T03:58:26.611Z,96.39
2017-08-24T03:59:26.661Z,96.42
2017-08-24T04:00:26.612Z,96.58
2017-08-24T04:01:26.643Z,96.99
2017-08-24T04:02:26.687Z,97.21
2017-08-24T04:03:26.629Z,97.26
2017-08-24T04:04:26.624Z,97.15
2017-08-24T04:05:26.617Z,97.36
2017-08-24T04:06:26.620Z,97.88
2017-08-24T04:07:26.665Z,97.96
2017-08-24T04:08:26.591Z,97.88
2017-08-24T04:09:26.620Z,98.02
2017-08-24T04:10:26.684Z,98.31
2017-08-24T04:11:26.636Z,98.53
2017-08-24T04:12:26.671Z,98.61
2017-08-24T04:13:26.631Z,98.77
2017-08-24T04:14:26.631Z,98.94
2017-08-24T04:15:26.697Z,99.10
2017-08-24T04:16:26.608Z,99.32
2017-08-24T04:17:26.699Z,99.21
2017-08-24T04:18:26.600Z,99.29
2017-08-24T04:19:26.697Z,99.72
2017-08-24T04:20:26.702Z,99.99
2017-08-24T04:21:26.601Z,99.96
2017-08-24T04:22:26.661Z,99.81
2017-08-24T04:23:26.632Z,99.62
2017-08-24T04:24:26.622Z,99.45
2017-08-24T04:25:26.600Z,99.59
2017-08-24T04:26:26.673Z,99.96
2017-08-24T04:27:26.635Z,99.99
2017-08-24T04:28:26.701Z,99.96
2017-08-24T04:29:26.697Z,99.78
2017-08-24T04:30:26.671Z,99.72
2017-08-24T04:31:26.667Z,99.64
2017-08-24T04:32:26.677Z,99.51
2017-08-24T04:33:26.611Z,99.75
2017-08-24T04:34:26.683Z,99.72
2017-08-24T04:35:26.611Z,99.86
2017-08-24T04:36:26.636Z,99.89
2017-08-24T04:37:26.614Z,99.99
2017-08-24T04:38:26.636Z,99.99
2017-08-24T04:39:26.681Z,99.99
2017-08-24T04:40:26.635Z,99.99
2017-08-24T04:41:26.609Z,99.99
2017-08-24T04:42:26.613Z,99.99
2017-08-24T04:43:26.650Z,99.99
2017-08-24T04:44:26.612Z,99.99
2017-08-24T04:45:26.711Z,99.99
2017-08-24T04:46:26.644Z,99.99
2017-08-24T04:47:26.680Z,99.99
2017-08-24T04:48:26.651Z,99.99
2017-08-24T04:49:26.615Z,99.99
2017-08-24T04:50:26.677Z,99.99
2017-08-24T04:51:26.690Z,99.99
2017-08-24T04:52:26.652Z,99.99
2017-08-24T04:53:26.639Z,99.99
2017-08-24T04:54:26.646Z,99.99
2017-08-24T04:55:26.697Z,99.99
2017-08-24T04:56:26.694Z,99.99
2017-08-24T04:57:26.714Z,99.99
2017-08-24T04:58:26.712Z,99.99
2017-08-24T04:59:26.627Z,99.99
2017-08-24T05:00:26.623Z,99.99
2017-08-24T05:01:26.709Z,99.99
2017-08-24T05:02:26.660Z,99.99
2017-08-24T05:03:26.628Z,99.99
2017-08-24T05:04:26.722Z,99.99
2017-08-24T05:05:26.679Z,99.99
2017-08-24T05:06:26.627Z,99.96
2017-08-24T05:07:26.627Z,99.59
2017-08-24T05:08:26.701Z,99.29
2017-08-24T05:09:26.717Z,99.21
2017-08-24T05:10:26.632Z,99.15
2017-08-24T05:11:26.696Z,99.13
2017-08-24T05:12:26.700Z,99.10
2017-08-24T05:13:26.630Z,99.34
2017-08-24T05:14:26.724Z,99.37
2017-08-24T05:15:26.636Z,99.34
2017-08-24T05:16:26.661Z,99.29
2017-08-24T05:17:26.728Z,99.23
2017-08-24T05:18:26.639Z,99.07
2017-08-24T05:19:26.636Z,98.96
2017-08-24T05:20:26.635Z,98.69
2017-08-24T05:21:26.695Z,98.42
2017-08-24T05:22:26.691Z,98.12
2017-08-24T05:23:26.657Z,98.26
2017-08-24T05:24:26.626Z,98.02
2017-08-24T05:25:26.653Z,97.77
2017-08-24T05:26:26.658Z,97.80
2017-08-24T05:27:26.658Z,97.93
2017-08-24T05:28:26.633Z,97.66
2017-08-24T05:29:26.712Z,96.99
2017-08-24T05:30:26.691Z,96.99
2017-08-24T05:31:26.630Z,96.99
2017-08-24T05:32:26.695Z,96.80
2017-08-24T05:33:26.742Z,96.28
2017-08-24T05:34:26.737Z,95.61
2017-08-24T05:35:26.697Z,95.42
2017-08-24T05:36:26.739Z,95.47
2017-08-24T05:37:26.704Z,95.26
2017-08-24T05:38:26.738Z,95.39
2017-08-24T05:39:26.647Z,94.93
2017-08-24T05:40:26.744Z,94.75
2017-08-24T05:41:26.702Z,95.07
2017-08-24T05:42:26.607Z,95.04
2017-08-24T05:43:26.638Z,95.15
2017-08-24T05:44:26.636Z,94.31
2017-08-24T05:45:26.640Z,94.23
2017-08-24T05:46:26.643Z,94.40
2017-08-24T05:47:26.656Z,94.64
2017-08-24T05:48:26.582Z,94.50
2017-08-24T05:49:26.652Z,94.31
2017-08-24T05:50:26.558Z,94.12
2017-08-24T05:51:26.609Z,93.83
2017-08-24T05:52:26.635Z,94.42
2017-08-24T05:53:26.710Z,94.53
2017-08-24T05:54:26.707Z,92.84
2017-08-24T05:55:26.648Z,92.99
2017-08-24T05:56:26.675Z,93.40
2017-08-24T05:57:26.678Z,93.16
2017-08-24T05:58:26.712Z,93.32
2017-08-24T05:59:26.644Z,93.16
2017-08-24T06:00:26.733Z,93.08
2017-08-24T06:01:26.694Z,92.99
2017-08-24T06:02:26.686Z,93.56
2017-08-24T06:03:26.635Z,93.51
2017-08-24T06:04:26.680Z,93.02
2017-08-24T06:05:26.676Z,93.54
2017-08-24T06:06:26.690Z,93.02
2017-08-24T06:07:26.626Z,92.89
2017-08-24T06:08:26.646Z,93.45
2017-08-24T06:09:26.680Z,92.43
2017-08-24T06:10:26.633Z,92.43
2017-08-24T06:11:26.725Z,92.70
2017-08-24T06:12:26.681Z,92.89
2017-08-24T06:13:26.658Z,92.95
2017-08-24T06:14:26.661Z,93.10
2017-08-24T06:15:26.684Z,93.02
2017-08-24T06:16:26.660Z,93.26
2017-08-24T06:17:26.718Z,93.13
2017-08-24T06:18:26.725Z,92.81
2017-08-24T06:19:26.729Z,92.49
2017-08-24T06:20:26.660Z,92.62
2017-08-24T06:21:26.757Z,92.89
2017-08-24T06:22:26.659Z,93.35
2017-08-24T06:23:26.655Z,93.54
2017-08-24T06:24:26.689Z,93.72
2017-08-24T06:25:26.695Z,93.45
2017-08-24T06:26:26.657Z,92.97
2017-08-24T06:27:26.697Z,92.49
2017-08-24T06:28:26.662Z,92.14
2017-08-24T06:29:26.663Z,91.97
2017-08-24T06:30:26.699Z,91.63
2017-08-24T06:31:26.728Z,92.81
2017-08-24T06:32:26.669Z,91.79
2017-08-24T06:33:26.871Z,90.88
2017-08-24T06:34:26.672Z,90.55
2017-08-24T06:35:26.647Z,90.88
2017-08-24T06:36:26.651Z,91.11
2017-08-24T06:37:26.700Z,90.42
2017-08-24T06:38:26.701Z,90.90
2017-08-24T06:39:26.745Z,91.11
2017-08-24T06:40:26.651Z,90.77
2017-08-24T06:41:26.684Z,90.31
2017-08-24T06:42:26.768Z,90.74
2017-08-24T06:43:26.739Z,90.58
2017-08-24T06:44:26.682Z,90.98
2017-08-24T06:45:26.708Z,91.25
2017-08-24T06:46:26.788Z,92.08
2017-08-24T06:47:26.687Z,91.84
2017-08-24T06:48:26.686Z,92.49
2017-08-24T06:49:26.759Z,91.25
2017-08-24T06:50:26.688Z,90.77
2017-08-24T06:51:26.713Z,90.23
2017-08-24T06:52:26.697Z,90.23
2017-08-24T06:53:26.695Z,90.55
2017-08-24T06:54:26.700Z,91.28
2017-08-24T06:55:26.759Z,91.57
2017-08-24T06:56:26.668Z,91.11
2017-08-24T06:57:26.704Z,90.63
2017-08-24T06:58:26.712Z,89.94
2017-08-24T06:59:26.708Z,90.88
2017-08-24T07:00:26.662Z,91.22
2017-08-24T07:01:26.687Z,91.17
2017-08-24T07:02:26.728Z,91.28
2017-08-24T07:03:26.787Z,90.80
2017-08-24T07:04:26.703Z,90.61
2017-08-24T07:05:26.781Z,91.09
2017-08-24T07:06:26.731Z,91.92
2017-08-24T07:07:26.731Z,91.55
2017-08-24T07:08:26.735Z,91.79
2017-08-24T07:09:26.695Z,91.28
2017-08-24T07:10:26.699Z,91.07
2017-08-24T07:11:26.771Z,91.47
2017-08-24T07:12:26.681Z,91.25
2017-08-24T07:13:26.754Z,90.61
2017-08-24T07:14:26.720Z,88.84
2017-08-24T07:15:26.758Z,89.32
2017-08-24T07:16:26.722Z,88.71
2017-08-24T07:17:26.755Z,89.59
2017-08-24T07:18:26.730Z,89.75
2017-08-24T07:19:26.698Z,89.45
2017-08-24T07:20:26.694Z,88.89
2017-08-24T07:21:26.726Z,89.16
2017-08-24T07:22:26.764Z,89.29
2017-08-24T07:23:26.740Z,89.32
2017-08-24T07:24:26.761Z,89.24
2017-08-24T07:25:26.773Z,89.62
2017-08-24T07:26:26.767Z,89.99
2017-08-24T07:27:26.804Z,89.83
2017-08-24T07:28:26.748Z,89.62
2017-08-24T07:29:26.738Z,89.19
2017-08-24T07:30:26.773Z,89.80
2017-08-24T07:31:26.713Z,89.54
2017-08-24T07:32:26.774Z,89.16
2017-08-24T07:33:26.766Z,89.24
2017-08-24T07:34:26.733Z,89.14
2017-08-24T07:35:26.743Z,89.45
2017-08-24T07:36:26.708Z,89.88
2017-08-24T07:37:26.771Z,89.91
2017-08-24T07:38:26.703Z,89.40
2017-08-24T07:39:26.710Z,89.37
2017-08-24T07:40:26.738Z,89.59
2017-08-24T07:41:26.736Z,89.24
2017-08-24T07:42:26.771Z,89.27
2017-08-24T07:43:26.719Z,89.99
2017-08-24T07:44:26.737Z,90.34
2017-08-24T07:45:26.733Z,90.31
2017-08-24T07:46:26.700Z,90.31
2017-08-24T07:47:26.721Z,90.20
2017-08-24T07:48:26.732Z,90.09
2017-08-24T07:49:26.748Z,90.39
2017-08-24T07:50:26.748Z,90.77
2017-08-24T07:51:26.745Z,90.90
2017-08-24T07:52:26.720Z,90.90
2017-08-24T07:53:26.756Z,91.01
2017-08-24T07:54:26.727Z,92.49
2017-08-24T07:55:26.814Z,90.80
2017-08-24T07:56:26.793Z,90.26
2017-08-24T07:57:26.794Z,90.55
2017-08-24T07:58:26.766Z,90.20
2017-08-24T07:59:26.733Z,90.98
2017-08-24T08:00:26.801Z,91.57
2017-08-24T08:01:26.728Z,89.99
2017-08-24T08:02:26.792Z,90.50
2017-08-24T08:03:26.795Z,92.01
2017-08-24T08:04:26.793Z,89.67
2017-08-24T08:05:26.801Z,90.05
2017-08-24T08:06:26.762Z,89.48
2017-08-24T08:07:26.768Z,89.67
2017-08-24T08:08:26.739Z,90.80
2017-08-24T08:09:26.733Z,90.36
2017-08-24T08:10:26.824Z,89.24
2017-08-24T08:11:26.804Z,89.86
2017-08-24T08:12:26.732Z,90.53
2017-08-24T08:13:26.736Z,89.03
2017-08-24T08:14:26.776Z,88.89
2017-08-24T08:15:26.832Z,88.28
2017-08-24T08:16:26.803Z,88.36
2017-08-24T08:17:26.824Z,88.36
2017-08-24T08:18:26.747Z,89.32
2017-08-24T08:19:26.836Z,88.79
2017-08-24T08:20:26.774Z,89.59
2017-08-24T08:21:26.776Z,89.99
2017-08-24T08:22:26.738Z,90.50
2017-08-24T08:23:26.744Z,90.71
2017-08-24T08:24:26.775Z,91.65
2017-08-24T08:25:26.743Z,91.41
2017-08-24T08:26:26.746Z,90.66
2017-08-24T08:27:26.780Z,90.05
2017-08-24T08:28:26.780Z,90.47
2017-08-24T08:29:26.816Z,89.14
2017-08-24T08:30:26.777Z,88.57
2017-08-24T08:31:26.744Z,89.54
2017-08-24T08:32:26.770Z,87.40
2017-08-24T08:33:26.735Z,86.65
2017-08-24T08:34:26.799Z,89.08
2017-08-24T08:35:26.764Z,86.07
2017-08-24T08:36:26.805Z,85.75
2017-08-24T08:37:26.780Z,83.22
2017-08-24T08:38:26.733Z,83.06
2017-08-24T08:39:26.734Z,80.65
2017-08-24T08:40:26.801Z,79.13
2017-08-24T08:41:26.804Z,78.57
2017-08-24T08:42:26.804Z,79.28
2017-08-24T08:43:26.784Z,78.28
2017-08-24T08:44:26.812Z,77.78
2017-08-24T08:45:26.828Z,78.59
2017-08-24T08:46:26.752Z,75.81
2017-08-24T08:47:26.812Z,77.49
2017-08-24T08:48:26.815Z,77.04
2017-08-24T08:49:26.750Z,77.59
2017-08-24T08:50:26.753Z,78.07
2017-08-24T08:51:26.782Z,77.62
2017-08-24T08:52:26.784Z,78.41
2017-08-24T08:53:26.766Z,79.15
2017-08-24T08:54:26.787Z,78.20
2017-08-24T08:55:26.782Z,78.09
2017-08-24T08:56:26.734Z,78.33
2017-08-24T08:57:26.769Z,78.57
2017-08-24T08:58:26.904Z,79.36
2017-08-24T08:59:26.773Z,78.73
2017-08-24T09:00:26.776Z,78.44
2017-08-24T09:01:26.773Z,78.05
2017-08-24T09:02:26.784Z,79.17
2017-08-24T09:03:26.788Z,78.09
2017-08-24T09:04:26.827Z,78.70
2017-08-24T09:05:26.830Z,79.07
2017-08-24T09:06:26.789Z,76.36
2017-08-24T09:07:26.800Z,77.81
2017-08-24T09:08:26.783Z,77.54
2017-08-24T09:09:26.767Z,77.94
2017-08-24T09:10:26.779Z,78.54
2017-08-24T09:11:26.764Z,75.73
2017-08-24T09:12:26.798Z,77.47
2017-08-24T09:13:26.835Z,76.86
2017-08-24T09:14:26.764Z,77.07
2017-08-24T09:15:26.767Z,75.89
2017-08-24T09:16:26.776Z,76.36
2017-08-24T09:17:26.761Z,76.15
2017-08-24T09:18:26.766Z,76.62
2017-08-24T09:19:26.770Z,75.13
2017-08-24T09:20:26.794Z,75.23
2017-08-24T09:21:26.835Z,76.10
2017-08-24T09:22:26.768Z,76.83
2017-08-24T09:23:26.866Z,76.12
2017-08-24T09:24:26.815Z,76.78
2017-08-24T09:25:26.777Z,75.78
2017-08-24T09:26:26.850Z,76.44
2017-08-24T09:27:26.869Z,76.20
2017-08-24T09:28:26.816Z,76.86
2017-08-24T09:29:26.780Z,76.54
2017-08-24T09:30:26.816Z,76.54
2017-08-24T09:31:26.789Z,76.94
2017-08-24T09:32:26.871Z,76.67
2017-08-24T09:33:26.785Z,76.46
2017-08-24T09:34:26.758Z,76.81
2017-08-24T09:35:26.809Z,76.86
2017-08-24T09:36:26.781Z,76.86
2017-08-24T09:37:26.806Z,76.94
2017-08-24T09:38:26.785Z,76.41
2017-08-24T09:39:26.817Z,77.17
2017-08-24T09:40:26.766Z,77.47
2017-08-24T09:41:26.819Z,76.78
2017-08-24T09:42:26.770Z,76.28
2017-08-24T09:43:26.838Z,75.70
2017-08-24T09:44:26.838Z,75.13
2017-08-24T09:45:26.781Z,75.55
2017-08-24T09:46:26.788Z,75.18
2017-08-24T09:47:26.802Z,73.87
2017-08-24T09:48:26.804Z,74.05
2017-08-24T09:49:26.776Z,74.32
2017-08-24T09:50:26.732Z,74.92
2017-08-24T09:51:26.802Z,75.23
2017-08-24T09:52:26.770Z,74.63
2017-08-24T09:53:26.832Z,76.12
2017-08-24T09:54:26.884Z,75.37
2017-08-24T09:55:26.853Z,75.31
2017-08-24T09:56:26.801Z,74.60
2017-08-24T09:57:26.871Z,75.10
2017-08-24T09:58:26.829Z,76.07
2017-08-24T09:59:26.835Z,76.81
2017-08-24T10:00:26.798Z,76.18
2017-08-24T10:01:26.888Z,76.52
2017-08-24T10:02:26.825Z,76.60
2017-08-24T10:03:26.826Z,76.67
2017-08-24T10:04:26.830Z,77.49
2017-08-24T10:05:26.855Z,78.20
2017-08-24T10:06:26.863Z,77.44
2017-08-24T10:07:26.841Z,77.07
2017-08-24T10:08:26.868Z,76.39
2017-08-24T10:09:26.841Z,76.34
2017-08-24T10:10:26.899Z,76.60
2017-08-24T10:11:26.837Z,77.04
2017-08-24T10:12:26.901Z,78.31
2017-08-24T10:13:26.803Z,77.15
2017-08-24T10:14:26.800Z,76.26
2017-08-24T10:15:26.828Z,76.41
2017-08-24T10:16:26.873Z,77.28
2017-08-24T10:17:26.867Z,76.62
2017-08-24T10:18:26.799Z,76.46
2017-08-24T10:19:26.801Z,75.41
2017-08-24T10:20:26.922Z,75.52
2017-08-24T10:21:26.801Z,74.36
2017-08-24T10:22:26.867Z,74.29
2017-08-24T10:23:26.909Z,73.06
2017-08-24T10:24:26.814Z,75.21
2017-08-24T10:25:26.819Z,74.24
2017-08-24T10:26:26.848Z,71.89
2017-08-24T10:27:26.841Z,70.40
2017-08-24T10:28:26.861Z,71.96
2017-08-24T10:29:27.013Z,71.52
2017-08-24T10:30:26.890Z,70.48
2017-08-24T10:31:26.905Z,71.10
2017-08-24T10:32:26.910Z,71.03
2017-08-24T10:33:26.918Z,70.06
2017-08-24T10:34:26.848Z,71.23
2017-08-24T10:35:26.855Z,69.02
2017-08-24T10:36:26.822Z,70.74
2017-08-24T10:37:26.859Z,70.14
2017-08-24T10:38:26.853Z,71.10
2017-08-24T10:39:26.888Z,70.09
2017-08-24T10:40:26.885Z,67.41
2017-08-24T10:41:26.852Z,66.35
2017-08-24T10:42:26.829Z,67.44
2017-08-24T10:43:26.910Z,67.80
2017-08-24T10:44:26.800Z,68.16
2017-08-24T10:45:26.770Z,66.27
2017-08-24T10:46:26.825Z,65.55
2017-08-24T10:47:26.855Z,67.77
2017-08-24T10:48:26.724Z,68.47
2017-08-24T10:49:26.767Z,67.00
2017-08-24T10:50:26.728Z,67.62
2017-08-24T10:51:26.771Z,68.91
2017-08-24T10:52:26.720Z,68.60
2017-08-24T10:53:26.773Z,68.91
2017-08-24T10:54:26.828Z,69.49
2017-08-24T10:55:26.925Z,70.40
2017-08-24T10:56:26.883Z,69.75
2017-08-24T10:57:26.935Z,70.53
2017-08-24T10:58:26.869Z,71.94
2017-08-24T10:59:26.907Z,71.07
2017-08-24T11:00:26.898Z,72.53
2017-08-24T11:01:26.900Z,71.34
2017-08-24T11:02:26.876Z,71.70
2017-08-24T11:03:26.933Z,73.08
2017-08-24T11:04:26.934Z,72.53
2017-08-24T11:05:26.871Z,73.48
2017-08-24T11:06:26.857Z,71.99
2017-08-24T11:07:26.841Z,71.65
2017-08-24T11:08:26.872Z,72.83
2017-08-24T11:09:26.913Z,74.00
2017-08-24T11:10:26.843Z,72.25
2017-08-24T11:11:26.915Z,72.38
2017-08-24T11:12:26.841Z,71.73
2017-08-24T11:13:26.867Z,69.75
2017-08-24T11:14:26.870Z,70.06
2017-08-24T11:15:26.906Z,69.96
2017-08-24T11:16:26.847Z,67.80
2017-08-24T11:17:26.894Z,67.72
2017-08-24T11:18:26.867Z,66.40
2017-08-24T11:19:26.936Z,67.23
2017-08-24T11:20:26.880Z,66.87
2017-08-24T11:21:26.914Z,65.14
2017-08-24T11:22:26.847Z,67.62
2017-08-24T11:23:27.031Z,65.89
2017-08-24T11:24:26.937Z,66.87
2017-08-24T11:25:26.873Z,67.64
2017-08-24T11:26:26.887Z,67.16
2017-08-24T11:27:26.879Z,67.13
2017-08-24T11:28:26.887Z,65.50
2017-08-24T11:29:26.940Z,67.36
2017-08-24T11:30:26.953Z,65.22
2017-08-24T11:31:26.849Z,66.43
2017-08-24T11:32:26.860Z,66.30
2017-08-24T11:33:26.885Z,65.96
2017-08-24T11:34:26.879Z,65.34
2017-08-24T11:35:26.955Z,65.76
2017-08-24T11:36:26.893Z,64.88
2017-08-24T11:37:26.943Z,66.35
2017-08-24T11:38:26.892Z,65.24
2017-08-24T11:39:26.894Z,65.14
2017-08-24T11:40:26.913Z,65.32
2017-08-24T11:41:26.894Z,65.73
2017-08-24T11:42:26.899Z,63.13
2017-08-24T11:43:26.858Z,64.02
2017-08-24T11:44:26.878Z,66.35
2017-08-24T11:45:26.923Z,63.02
2017-08-24T11:46:27.044Z,63.05
2017-08-24T11:47:26.937Z,59.76
2017-08-24T11:48:26.936Z,59.35
2017-08-24T11:49:26.903Z,59.99
2017-08-24T11:50:26.918Z,59.65
2017-08-24T11:51:26.896Z,58.94
2017-08-24T11:52:26.885Z,59.97
2017-08-24T11:53:26.931Z,59.94
2017-08-24T11:54:26.898Z,60.94
2017-08-24T11:55:26.870Z,61.30
2017-08-24T11:56:26.954Z,61.14
2017-08-24T11:57:26.895Z,62.10
2017-08-24T11:58:26.887Z,59.68
2017-08-24T11:59:26.938Z,61.09
2017-08-24T12:00:26.901Z,60.22
2017-08-24T12:01:26.928Z,58.20
2017-08-24T12:02:26.897Z,58.10
2017-08-24T12:03:26.893Z,56.21
2017-08-24T12:04:26.886Z,55.02
2017-08-24T12:05:26.810Z,54.15
2017-08-24T12:06:26.870Z,54.99
2017-08-24T12:07:26.888Z,56.57
2017-08-24T12:08:26.884Z,54.41
2017-08-24T12:09:26.888Z,51.08
2017-08-24T12:10:26.874Z,50.86
2017-08-24T12:11:26.817Z,49.85
2017-08-24T12:12:26.873Z,51.24
2017-08-24T12:13:26.831Z,50.58
2017-08-24T12:14:26.873Z,53.56
2017-08-24T12:15:26.843Z,50.18
2017-08-24T12:16:26.893Z,50.71
2017-08-24T12:17:26.892Z,50.88
2017-08-24T12:18:26.853Z,49.77
2017-08-24T12:19:26.852Z,50.68
2017-08-24T12:20:26.945Z,51.97
2017-08-24T12:21:26.851Z,51.29
2017-08-24T12:22:26.891Z,49.04
2017-08-24T12:23:27.022Z,52.81
2017-08-24T12:24:26.873Z,50.13
2017-08-24T12:25:26.933Z,51.89
2017-08-24T12:26:26.943Z,52.35
2017-08-24T12:27:26.875Z,53.54
2017-08-24T12:28:26.875Z,53.72
2017-08-24T12:29:26.877Z,53.11
2017-08-24T12:30:26.903Z,53.21
2017-08-24T12:31:26.939Z,54.28
2017-08-24T12:32:26.877Z,54.10
2017-08-24T12:33:26.964Z,54.30
2017-08-24T12:34:26.893Z,53.23
2017-08-24T12:35:26.887Z,52.55
2017-08-24T12:36:26.908Z,52.40
2017-08-24T12:37:26.975Z,52.32
2017-08-24T12:38:26.897Z,53.36
2017-08-24T12:39:26.941Z,52.63
2017-08-24T12:40:26.923Z,57.46
2017-08-24T12:41:26.983Z,51.62
2017-08-24T12:42:26.895Z,51.19
2017-08-24T12:43:26.963Z,50.35
2017-08-24T12:44:26.950Z,49.92
2017-08-24T12:45:26.932Z,50.73
2017-08-24T12:46:26.933Z,50.80
2017-08-24T12:47:26.995Z,49.09
2017-08-24T12:48:26.918Z,49.97
2017-08-24T12:49:26.923Z,49.75
2017-08-24T12:50:26.932Z,50.50
2017-08-24T12:51:26.905Z,53.01
2017-08-24T12:52:26.953Z,48.99
2017-08-24T12:53:26.930Z,51.04